Time;durP1;ratioP1;P1;durP2;ratioP2;P2;SDS_P1;SDS_P2;PMS_P1;PMS_P2;Temp;Humidity;BMP_temperature;BMP_pressure;BME280_temperature;BME280_humidity;BME280_pressure;Samples;Min_cycle;Max_cycle;Signal;HPM_P1;HPM_P2
2021/12/20 00:00:02;;;;;;;27.23;4.78;;;;;;;;;;4866610;29;20483;-83
2021/12/20 00:02:28;;;;;;;25.15;4.47;;;;;;;;;;4888168;29;20243;-83
2021/12/20 00:04:54;;;;;;;24.02;4.65;;;;;;;;;;4895010;29;20099;-83
2021/12/20 00:07:22;;;;;;;24.42;4.65;;;;;;;;;;4871975;29;20133;-83
2021/12/20 00:09:49;;;;;;;23.05;4.45;;;;;;;;;;4873385;29;20059;-83
2021/12/20 00:12:16;;;;;;;28.92;4.40;;;;;;;;;;4872928;29;20967;-83
2021/12/20 00:14:43;;;;;;;28.13;5.18;;;;;;;;;;4866938;28;20048;-83
2021/12/20 00:17:09;;;;;;;30.10;5.07;;;;;;;;;;4929255;28;20065;-84
2021/12/20 00:19:36;;;;;;;30.15;4.72;;;;;;;;;;4887127;28;20198;-83
2021/12/20 00:22:04;;;;;;;18.40;3.83;;;;;;;;;;4918683;28;20058;-83
2021/12/20 00:24:30;;;;;;;23.05;5.10;;;;;;;;;;4913832;28;20062;-83
2021/12/20 00:26:58;;;;;;;24.85;4.45;;;;;;;;;;4915177;29;20130;-83
2021/12/20 00:29:27;;;;;;;26.25;5.28;;;;;;;;;;4928318;28;20051;-83
2021/12/20 00:31:54;;;;;;;30.52;5.25;;;;;;;;;;4884726;28;20051;-83
2021/12/20 00:34:21;;;;;;;23.40;4.15;;;;;;;;;;4905215;28;20138;-83
2021/12/20 00:36:57;;;;;;;30.60;4.80;;;;;;;;;;4898947;29;20795;-83
2021/12/20 00:42:11;;;;;;;29.73;4.78;;;;;;;;;;4897124;29;20052;-83
2021/12/20 00:44:37;;;;;;;21.50;4.82;;;;;;;;;;4900746;29;20087;-83
2021/12/20 00:47:04;;;;;;;29.23;4.43;;;;;;;;;;4884243;29;20048;-83
2021/12/20 00:49:31;;;;;;;27.23;5.25;;;;;;;;;;4900050;29;20055;-83
2021/12/20 00:51:57;;;;;;;23.20;4.32;;;;;;;;;;4890525;29;20038;-84
2021/12/20 00:54:25;;;;;;;23.23;3.78;;;;;;;;;;4888753;29;20039;-83
2021/12/20 00:56:52;;;;;;;25.15;4.00;;;;;;;;;;4918967;29;20130;-84
2021/12/20 00:59:19;;;;;;;24.98;3.90;;;;;;;;;;4898337;29;20079;-83
2021/12/20 01:01:46;;;;;;;24.75;4.03;;;;;;;;;;4914946;28;20092;-83
2021/12/20 01:04:13;;;;;;;19.88;4.45;;;;;;;;;;4887628;29;20895;-84
2021/12/20 01:06:40;;;;;;;25.48;4.05;;;;;;;;;;4907887;28;20766;-84
2021/12/20 01:09:07;;;;;;;20.35;4.63;;;;;;;;;;4910093;29;20118;-84
2021/12/20 01:11:39;;;;;;;22.38;4.53;;;;;;;;;;4901890;29;20098;-83
2021/12/20 01:14:05;;;;;;;17.40;3.92;;;;;;;;;;4879280;29;20091;-84
2021/12/20 01:16:34;;;;;;;23.20;4.00;;;;;;;;;;4885679;29;20107;-83
2021/12/20 01:19:00;;;;;;;18.98;3.30;;;;;;;;;;4889613;29;20134;-83
2021/12/20 01:21:29;;;;;;;13.32;3.28;;;;;;;;;;4879790;29;21179;-83
2021/12/20 01:23:56;;;;;;;19.92;3.67;;;;;;;;;;4894491;29;20078;-83
2021/12/20 01:26:26;;;;;;;15.40;3.40;;;;;;;;;;4890306;29;21444;-83
2021/12/20 01:28:53;;;;;;;17.58;4.05;;;;;;;;;;4912046;29;20499;-83
2021/12/20 01:31:24;;;;;;;20.80;3.72;;;;;;;;;;4900632;29;20211;-83
2021/12/20 01:33:54;;;;;;;23.80;4.30;;;;;;;;;;4912968;29;20051;-84
2021/12/20 01:36:21;;;;;;;26.83;3.83;;;;;;;;;;4899405;28;20483;-83
2021/12/20 01:38:50;;;;;;;21.90;4.45;;;;;;;;;;4891663;28;20043;-83
2021/12/20 01:41:16;;;;;;;;;;;;;;;;;;4901369;28;20039;-84
2021/12/20 01:43:44;;;;;;;20.95;3.95;;;;;;;;;;4896450;28;20362;-83
2021/12/20 01:46:10;;;;;;;15.05;3.42;;;;;;;;;;4898871;28;20071;-83
2021/12/20 01:48:39;;;;;;;17.13;3.70;;;;;;;;;;4916176;28;20457;-83
2021/12/20 01:51:45;;;;;;;16.40;3.35;;;;;;;;;;4917701;28;20061;-83
2021/12/20 01:54:12;;;;;;;13.40;3.28;;;;;;;;;;4918962;28;20047;-84
2021/12/20 01:56:41;;;;;;;21.30;4.13;;;;;;;;;;4909826;28;20098;-83
2021/12/20 01:59:09;;;;;;;17.38;3.58;;;;;;;;;;4921456;28;20051;-84
2021/12/20 02:01:37;;;;;;;12.50;2.83;;;;;;;;;;4921177;28;20085;-83
2021/12/20 02:04:07;;;;;;;24.67;3.47;;;;;;;;;;4920965;29;20106;-83
2021/12/20 02:06:37;;;;;;;19.08;3.03;;;;;;;;;;4909556;29;20073;-84
2021/12/20 02:09:23;;;;;;;14.18;2.90;;;;;;;;;;4889159;29;20055;-84
2021/12/20 02:11:50;;;;;;;15.32;3.42;;;;;;;;;;4936232;28;20047;-84
2021/12/20 02:14:18;;;;;;;24.75;3.33;;;;;;;;;;4936414;28;20483;-83
2021/12/20 02:16:44;;;;;;;17.00;3.47;;;;;;;;;;4925146;28;20047;-83
2021/12/20 02:19:12;;;;;;;18.73;3.50;;;;;;;;;;4917216;28;20091;-84
2021/12/20 02:21:47;;;;;;;19.80;3.85;;;;;;;;;;4939341;28;20399;-83
2021/12/20 02:24:28;;;;;;;22.35;3.35;;;;;;;;;;4903936;28;20054;-83
2021/12/20 02:26:55;;;;;;;21.20;3.10;;;;;;;;;;4890989;29;20503;-83
2021/12/20 02:29:38;;;;;;;24.23;4.15;;;;;;;;;;4917165;28;20079;-83
2021/12/20 02:37:38;;;;;;;16.30;2.83;;;;;;;;;;4914885;29;20398;-83
2021/12/20 02:40:06;;;;;;;18.80;2.95;;;;;;;;;;4897503;28;20047;-83
2021/12/20 02:42:42;;;;;;;19.30;3.60;;;;;;;;;;4940326;28;20490;-83
2021/12/20 02:45:14;;;;;;;22.25;3.70;;;;;;;;;;4933398;28;20043;-83
2021/12/20 02:47:45;;;;;;;14.90;2.95;;;;;;;;;;4927946;28;20130;-83
2021/12/20 02:50:12;;;;;;;15.40;3.72;;;;;;;;;;4935431;28;20066;-83
2021/12/20 02:52:40;;;;;;;13.88;3.22;;;;;;;;;;4924101;28;20375;-83
2021/12/20 02:55:08;;;;;;;14.95;3.08;;;;;;;;;;4908075;28;20434;-83
2021/12/20 02:57:36;;;;;;;19.33;3.20;;;;;;;;;;4923360;28;20047;-83
2021/12/20 03:00:03;;;;;;;19.45;3.10;;;;;;;;;;4912388;28;20490;-83
2021/12/20 03:02:29;;;;;;;17.92;3.35;;;;;;;;;;4934037;28;20047;-83
2021/12/20 03:04:56;;;;;;;15.55;3.17;;;;;;;;;;4924352;28;20043;-83
2021/12/20 03:07:26;;;;;;;17.42;3.70;;;;;;;;;;4935392;28;20051;-83
2021/12/20 03:09:58;;;;;;;15.73;2.67;;;;;;;;;;4928606;28;20047;-83
2021/12/20 03:12:28;;;;;;;13.88;2.95;;;;;;;;;;4919725;28;21414;-83
2021/12/20 03:15:11;;;;;;;;;;;;;;;;;;4939360;28;20079;-83
2021/12/20 03:17:39;;;;;;;17.10;2.97;;;;;;;;;;4927122;28;19976;-83
2021/12/20 03:20:07;;;;;;;19.58;2.88;;;;;;;;;;4900448;28;20134;-84
2021/12/20 03:22:33;;;;;;;10.90;2.63;;;;;;;;;;4908330;28;20105;-84
2021/12/20 03:25:00;;;;;;;16.52;3.30;;;;;;;;;;4911130;28;20082;-84
2021/12/20 03:27:27;;;;;;;12.80;2.90;;;;;;;;;;4918432;28;22708;-84
2021/12/20 03:29:54;;;;;;;13.43;2.55;;;;;;;;;;4908306;28;20050;-84
2021/12/20 03:32:22;;;;;;;16.70;2.78;;;;;;;;;;4903228;28;21031;-84
2021/12/20 03:34:48;;;;;;;9.83;2.80;;;;;;;;;;4904470;29;20051;-83
2021/12/20 03:37:15;;;;;;;13.50;2.80;;;;;;;;;;4916972;28;20319;-83
2021/12/20 03:39:41;;;;;;;8.65;2.55;;;;;;;;;;4889721;28;20051;-83
2021/12/20 03:42:10;;;;;;;15.95;2.70;;;;;;;;;;4921309;28;20074;-83
2021/12/20 03:44:43;;;;;;;11.30;2.42;;;;;;;;;;4888814;28;20442;-83
2021/12/20 03:47:11;;;;;;;13.70;2.80;;;;;;;;;;4918531;28;20039;-83
2021/12/20 03:49:38;;;;;;;15.88;2.88;;;;;;;;;;4924624;28;20447;-84
2021/12/20 03:52:07;;;;;;;12.32;2.88;;;;;;;;;;4924218;28;20051;-84
2021/12/20 03:54:33;;;;;;;14.27;2.90;;;;;;;;;;4904963;28;20054;-83
2021/12/20 03:57:02;;;;;;;14.35;3.25;;;;;;;;;;4899314;29;20965;-84
2021/12/20 03:59:31;;;;;;;13.15;2.72;;;;;;;;;;4901610;29;20047;-83
2021/12/20 04:02:00;;;;;;;14.48;3.03;;;;;;;;;;4889882;29;20502;-84
2021/12/20 04:04:27;;;;;;;13.30;2.72;;;;;;;;;;4901035;29;20043;-84
2021/12/20 04:06:54;;;;;;;12.32;2.78;;;;;;;;;;4921051;28;20569;-84
2021/12/20 04:09:21;;;;;;;12.65;3.00;;;;;;;;;;4915400;29;20130;-83
2021/12/20 04:11:48;;;;;;;13.77;3.10;;;;;;;;;;4893291;28;20778;-84
2021/12/20 04:14:15;;;;;;;13.13;3.10;;;;;;;;;;4882409;29;20043;-84
2021/12/20 04:16:42;;;;;;;15.37;3.20;;;;;;;;;;4899186;28;20112;-84
2021/12/20 04:19:09;;;;;;;12.38;2.20;;;;;;;;;;4916460;28;20426;-83
2021/12/20 04:21:35;;;;;;;11.23;2.35;;;;;;;;;;4903553;29;20044;-83
2021/12/20 04:24:07;;;;;;;10.55;2.50;;;;;;;;;;4899121;29;20403;-83
2021/12/20 04:26:43;;;;;;;21.40;4.13;;;;;;;;;;4923220;28;20038;-83
2021/12/20 04:29:10;;;;;;;12.20;2.33;;;;;;;;;;4888125;28;20398;-83
2021/12/20 04:31:37;;;;;;;13.13;2.20;;;;;;;;;;4921745;29;20047;-83
2021/12/20 04:34:03;;;;;;;14.30;2.55;;;;;;;;;;4920787;28;20141;-83
2021/12/20 04:36:33;;;;;;;11.60;2.05;;;;;;;;;;4885441;28;20472;-83
2021/12/20 04:39:01;;;;;;;9.80;2.08;;;;;;;;;;4923687;28;20081;-83
2021/12/20 04:41:27;;;;;;;10.55;2.35;;;;;;;;;;4917114;28;20278;-82
2021/12/20 04:43:54;;;;;;;7.30;2.10;;;;;;;;;;4914833;28;20044;-82
2021/12/20 04:46:20;;;;;;;11.80;2.30;;;;;;;;;;4898221;28;20106;-82
2021/12/20 04:48:47;;;;;;;12.43;2.30;;;;;;;;;;4905887;28;20399;-82
2021/12/20 04:51:14;;;;;;;9.20;2.08;;;;;;;;;;4931493;28;20047;-82
2021/12/20 04:53:41;;;;;;;9.93;2.53;;;;;;;;;;4933883;28;20380;-84
2021/12/20 04:56:08;;;;;;;11.73;2.92;;;;;;;;;;4931794;28;20491;-83
2021/12/20 04:58:35;;;;;;;6.90;1.92;;;;;;;;;;4921291;29;20518;-82
2021/12/20 05:01:05;;;;;;;7.78;2.35;;;;;;;;;;4918893;28;20051;-83
2021/12/20 05:03:32;;;;;;;14.68;2.25;;;;;;;;;;4937404;28;20047;-83
2021/12/20 05:05:59;;;;;;;12.95;2.53;;;;;;;;;;4940330;28;20039;-83
2021/12/20 05:08:47;;;;;;;8.35;2.33;;;;;;;;;;4935809;28;20047;-83
2021/12/20 05:11:15;;;;;;;9.65;3.00;;;;;;;;;;4930624;28;20134;-83
2021/12/20 05:13:42;;;;;;;7.20;2.27;;;;;;;;;;4936983;28;20690;-83
2021/12/20 05:16:09;;;;;;;11.52;2.17;;;;;;;;;;4917014;28;20051;-83
2021/12/20 05:18:44;;;;;;;13.90;2.05;;;;;;;;;;4938453;28;20134;-82
2021/12/20 05:21:26;;;;;;;12.25;2.08;;;;;;;;;;4913017;29;20058;-82
2021/12/20 05:23:53;;;;;;;10.10;2.28;;;;;;;;;;4899469;29;20048;-84
2021/12/20 05:26:20;;;;;;;11.23;2.03;;;;;;;;;;4890468;29;20040;-84
2021/12/20 05:28:50;;;;;;;7.93;2.03;;;;;;;;;;4914388;29;20099;-84
2021/12/20 05:31:17;;;;;;;9.65;2.47;;;;;;;;;;4877517;29;20043;-82
2021/12/20 05:33:44;;;;;;;11.60;2.00;;;;;;;;;;4899573;29;20051;-82
2021/12/20 05:36:10;;;;;;;10.00;2.47;;;;;;;;;;4908284;29;20056;-82
2021/12/20 05:38:45;;;;;;;9.45;2.13;;;;;;;;;;4893855;29;20591;-82
2021/12/20 05:41:12;;;;;;;10.00;2.42;;;;;;;;;;4874511;29;20049;-82
2021/12/20 05:43:39;;;;;;;8.73;1.70;;;;;;;;;;4879974;29;20527;-82
2021/12/20 05:46:06;;;;;;;13.27;2.47;;;;;;;;;;4875990;29;20454;-82
2021/12/20 05:48:33;;;;;;;13.60;2.88;;;;;;;;;;4864671;29;20063;-81
2021/12/20 05:51:00;;;;;;;17.85;3.15;;;;;;;;;;4863302;29;20143;-81
2021/12/20 05:53:27;;;;;;;11.80;2.35;;;;;;;;;;4908407;29;20051;-82
2021/12/20 05:55:54;;;;;;;12.88;2.80;;;;;;;;;;4902968;29;20048;-82
2021/12/20 05:58:23;;;;;;;8.77;1.52;;;;;;;;;;4894300;29;20043;-81
2021/12/20 06:00:49;;;;;;;10.75;2.30;;;;;;;;;;4919385;29;20079;-81
2021/12/20 06:03:16;;;;;;;10.38;2.17;;;;;;;;;;4896075;29;20052;-81
2021/12/20 06:05:43;;;;;;;8.43;2.20;;;;;;;;;;4919769;29;20048;-81
2021/12/20 06:08:10;;;;;;;9.13;2.40;;;;;;;;;;4901134;29;20044;-81
2021/12/20 06:10:37;;;;;;;11.75;2.58;;;;;;;;;;4898947;29;20055;-82
2021/12/20 06:13:06;;;;;;;8.82;2.35;;;;;;;;;;4888966;29;20087;-81
2021/12/20 06:15:33;;;;;;;13.93;2.65;;;;;;;;;;4905733;29;20494;-81
2021/12/20 06:18:03;;;;;;;8.75;2.00;;;;;;;;;;4907186;29;20105;-81
2021/12/20 06:20:30;;;;;;;16.17;3.13;;;;;;;;;;4900216;29;20039;-81
2021/12/20 06:22:57;;;;;;;8.50;2.15;;;;;;;;;;4892034;29;20044;-81
2021/12/20 06:25:26;;;;;;;12.23;2.00;;;;;;;;;;4901188;29;20048;-81
2021/12/20 06:27:54;;;;;;;11.73;2.40;;;;;;;;;;4903151;29;20044;-81
2021/12/20 06:30:24;;;;;;;9.55;1.67;;;;;;;;;;4885230;29;20407;-81
2021/12/20 06:32:50;;;;;;;10.80;2.03;;;;;;;;;;4872884;29;20471;-81
2021/12/20 06:35:17;;;;;;;6.82;1.90;;;;;;;;;;4903243;29;20066;-81
2021/12/20 06:37:47;;;;;;;7.47;1.45;;;;;;;;;;4921695;28;20059;-81
2021/12/20 06:40:14;;;;;;;10.85;2.20;;;;;;;;;;4926826;28;20051;-81
2021/12/20 06:42:40;;;;;;;11.73;2.10;;;;;;;;;;4929474;28;20043;-81
2021/12/20 06:45:29;;;;;;;11.13;1.70;;;;;;;;;;4938971;28;20045;-81
2021/12/20 06:47:57;;;;;;;10.23;2.00;;;;;;;;;;4921857;28;20443;-81
2021/12/20 06:50:23;;;;;;;10.32;2.25;;;;;;;;;;4920605;28;20051;-81
2021/12/20 06:52:52;;;;;;;9.57;2.20;;;;;;;;;;4909930;28;20060;-81
2021/12/20 06:55:18;;;;;;;;;;;;;;;;;;4916740;28;20047;-81
2021/12/20 06:58:00;;;;;;;9.43;1.92;;;;;;;;;;4938309;28;20014;-81
2021/12/20 07:00:27;;;;;;;11.35;2.45;;;;;;;;;;4904318;28;23257;-81
2021/12/20 07:02:55;;;;;;;8.48;2.25;;;;;;;;;;4896655;28;20488;-81
2021/12/20 07:05:22;;;;;;;10.57;2.50;;;;;;;;;;4919205;28;20062;-81
2021/12/20 07:07:49;;;;;;;8.35;1.90;;;;;;;;;;4892628;28;20042;-81
2021/12/20 07:10:15;;;;;;;7.63;2.10;;;;;;;;;;4917028;28;20058;-81
2021/12/20 07:12:42;;;;;;;7.75;2.00;;;;;;;;;;4920601;28;20043;-81
2021/12/20 07:15:14;;;;;;;12.20;2.28;;;;;;;;;;4919247;28;20054;-81
2021/12/20 07:17:43;;;;;;;12.60;2.83;;;;;;;;;;4925298;29;20047;-81
2021/12/20 07:20:12;;;;;;;11.38;2.35;;;;;;;;;;4914525;28;20131;-82
2021/12/20 07:22:40;;;;;;;10.05;2.35;;;;;;;;;;4906693;28;20456;-82
2021/12/20 07:25:07;;;;;;;7.68;2.30;;;;;;;;;;4931102;28;20051;-81
2021/12/20 07:27:34;;;;;;;8.70;2.28;;;;;;;;;;4889081;28;20179;-81
2021/12/20 07:30:03;;;;;;;13.80;2.50;;;;;;;;;;4925449;28;20495;-82
2021/12/20 07:32:30;;;;;;;10.00;2.60;;;;;;;;;;4905606;28;20409;-82
2021/12/20 07:34:57;;;;;;;11.52;2.17;;;;;;;;;;4910424;28;20047;-81
2021/12/20 07:37:27;;;;;;;7.82;2.17;;;;;;;;;;4934411;28;20086;-80
2021/12/20 07:39:54;;;;;;;8.20;2.08;;;;;;;;;;4924449;28;20394;-80
2021/12/20 07:42:21;;;;;;;6.88;2.03;;;;;;;;;;4913750;28;20062;-80
2021/12/20 07:44:48;;;;;;;6.40;2.03;;;;;;;;;;4926237;28;20482;-80
2021/12/20 07:47:14;;;;;;;9.27;2.08;;;;;;;;;;4905203;28;20035;-81
2021/12/20 07:49:40;;;;;;;16.95;2.00;;;;;;;;;;4905234;28;20102;-81
2021/12/20 07:52:07;;;;;;;7.25;2.25;;;;;;;;;;4891074;28;20043;-81
2021/12/20 07:54:34;;;;;;;7.15;2.22;;;;;;;;;;4888748;29;20109;-80
2021/12/20 07:57:01;;;;;;;11.20;2.13;;;;;;;;;;4909821;28;20051;-80
2021/12/20 07:59:28;;;;;;;8.90;2.05;;;;;;;;;;4939533;28;20051;-81
2021/12/20 08:01:55;;;;;;;8.35;2.42;;;;;;;;;;4943467;28;20048;-81
2021/12/20 08:04:22;;;;;;;8.70;2.20;;;;;;;;;;4920427;28;20047;-80
2021/12/20 08:06:49;;;;;;;7.15;2.40;;;;;;;;;;4912154;28;20418;-81
2021/12/20 08:09:16;;;;;;;5.35;1.83;;;;;;;;;;4919731;28;20039;-81
2021/12/20 08:11:43;;;;;;;8.77;2.25;;;;;;;;;;4935843;28;20695;-81
2021/12/20 08:14:10;;;;;;;10.90;2.47;;;;;;;;;;4910260;28;20055;-81
2021/12/20 08:16:37;;;;;;;11.48;2.53;;;;;;;;;;4909030;29;20047;-81
2021/12/20 08:19:07;;;;;;;8.93;2.30;;;;;;;;;;4925225;28;20055;-80
2021/12/20 08:21:33;;;;;;;9.85;2.30;;;;;;;;;;4918694;28;20046;-81
2021/12/20 08:24:05;;;;;;;14.27;3.10;;;;;;;;;;4939513;28;20109;-81
2021/12/20 08:26:34;;;;;;;6.72;2.55;;;;;;;;;;4941035;28;20500;-81
2021/12/20 08:29:03;;;;;;;11.07;2.55;;;;;;;;;;4903045;29;20052;-81
2021/12/20 08:31:30;;;;;;;8.70;2.58;;;;;;;;;;4885563;28;20051;-81
2021/12/20 08:33:57;;;;;;;10.40;2.60;;;;;;;;;;4917153;28;20055;-81
2021/12/20 08:36:23;;;;;;;9.63;2.72;;;;;;;;;;4908690;28;20454;-81
2021/12/20 08:38:52;;;;;;;7.97;2.55;;;;;;;;;;4920659;29;20057;-81
2021/12/20 08:41:19;;;;;;;9.82;2.65;;;;;;;;;;4900335;28;20071;-81
2021/12/20 08:43:46;;;;;;;7.63;1.92;;;;;;;;;;4902152;28;20043;-81
2021/12/20 08:46:14;;;;;;;7.25;2.28;;;;;;;;;;4905056;28;20042;-81
2021/12/20 08:48:42;;;;;;;9.73;2.72;;;;;;;;;;4906951;28;20054;-81
2021/12/20 08:51:14;;;;;;;10.68;3.20;;;;;;;;;;4915160;28;20082;-81
2021/12/20 08:53:41;;;;;;;11.65;2.97;;;;;;;;;;4890373;28;20402;-80
2021/12/20 08:56:08;;;;;;;7.72;3.08;;;;;;;;;;4929462;28;20054;-80
2021/12/20 08:58:37;;;;;;;8.30;2.90;;;;;;;;;;4905908;28;20039;-80
2021/12/20 09:01:05;;;;;;;13.90;3.55;;;;;;;;;;4901213;28;20342;-80
2021/12/20 09:03:34;;;;;;;9.25;3.50;;;;;;;;;;4932814;28;20070;-80
2021/12/20 09:06:02;;;;;;;11.93;3.58;;;;;;;;;;4904742;28;20051;-80
2021/12/20 09:08:30;;;;;;;9.30;3.45;;;;;;;;;;4914537;28;20043;-80
2021/12/20 09:10:56;;;;;;;;;;;;;;;;;;4921080;29;20149;-81
2021/12/20 09:13:24;;;;;;;12.85;3.70;;;;;;;;;;4916791;28;19927;-80
2021/12/20 09:15:51;;;;;;;9.50;3.50;;;;;;;;;;4920007;28;20158;-81
2021/12/20 09:18:19;;;;;;;11.90;3.10;;;;;;;;;;4914731;28;20055;-80
2021/12/20 09:21:00;;;;;;;12.30;4.03;;;;;;;;;;4936611;28;20085;-80
2021/12/20 09:23:29;;;;;;;6.03;3.20;;;;;;;;;;4922554;28;20744;-81
2021/12/20 09:26:05;;;;;;;12.60;3.72;;;;;;;;;;4922380;28;20050;-80
2021/12/20 09:28:32;;;;;;;14.80;4.55;;;;;;;;;;4922082;28;20057;-80
2021/12/20 09:30:59;;;;;;;13.13;5.43;;;;;;;;;;4922095;28;20050;-80
2021/12/20 09:33:31;;;;;;;16.20;6.82;;;;;;;;;;4920490;28;20099;-80
2021/12/20 09:35:57;;;;;;;14.60;8.45;;;;;;;;;;4915734;28;20047;-80
2021/12/20 09:38:25;;;;;;;17.10;8.55;;;;;;;;;;4923688;28;20059;-80
2021/12/20 09:42:00;;;;;;;15.13;8.07;;;;;;;;;;4923284;28;20046;-80
2021/12/20 09:43:52;;;;;;;14.80;6.68;;;;;;;;;;4901208;29;20074;-80
2021/12/20 09:46:18;;;;;;;15.95;5.78;;;;;;;;;;4916883;28;20171;-80
2021/12/20 09:48:47;;;;;;;11.45;5.43;;;;;;;;;;4910218;28;20852;-81
2021/12/20 09:51:14;;;;;;;11.50;4.72;;;;;;;;;;4922034;28;20043;-80
2021/12/20 09:53:41;;;;;;;12.88;4.72;;;;;;;;;;4954950;28;20071;-80
2021/12/20 09:56:19;;;;;;;15.48;4.72;;;;;;;;;;4946736;28;20070;-80
2021/12/20 09:58:46;;;;;;;13.30;5.22;;;;;;;;;;4920481;28;20061;-80
2021/12/20 10:01:13;;;;;;;12.93;5.53;;;;;;;;;;4927578;28;20071;-80
2021/12/20 10:03:40;;;;;;;10.88;5.25;;;;;;;;;;4907350;29;20391;-80
2021/12/20 10:06:10;;;;;;;10.88;5.13;;;;;;;;;;4944189;28;20045;-80
2021/12/20 10:08:47;;;;;;;8.05;5.15;;;;;;;;;;4925726;28;20048;-81
2021/12/20 10:11:22;;;;;;;9.52;5.05;;;;;;;;;;4913743;28;20486;-81
2021/12/20 10:13:49;;;;;;;13.10;5.07;;;;;;;;;;4919121;28;20051;-81
2021/12/20 10:16:20;;;;;;;11.40;5.35;;;;;;;;;;4903396;28;20083;-81
2021/12/20 10:18:46;;;;;;;9.15;4.50;;;;;;;;;;4906561;28;20046;-81
2021/12/20 10:21:13;;;;;;;8.73;4.05;;;;;;;;;;4917711;28;20051;-82
2021/12/20 10:23:42;;;;;;;7.57;3.75;;;;;;;;;;4903483;28;20093;-81
2021/12/20 10:26:30;;;;;;;7.28;4.00;;;;;;;;;;4897091;28;20109;-81
2021/12/20 10:28:58;;;;;;;9.15;3.42;;;;;;;;;;4922227;28;20174;-81
2021/12/20 10:31:27;;;;;;;6.68;3.13;;;;;;;;;;4914228;28;22126;-82
2021/12/20 10:34:14;;;;;;;9.27;3.30;;;;;;;;;;4888296;28;20047;-82
2021/12/20 10:36:56;;;;;;;8.30;3.22;;;;;;;;;;4942222;28;20047;-81
2021/12/20 10:39:43;;;;;;;13.98;4.85;;;;;;;;;;4913828;28;20174;-84
2021/12/20 10:42:19;;;;;;;12.57;4.00;;;;;;;;;;4913553;28;20043;-82
2021/12/20 10:45:08;;;;;;;17.05;5.68;;;;;;;;;;4920548;28;20043;-83
2021/12/20 10:47:35;;;;;;;13.45;5.05;;;;;;;;;;4918900;28;20062;-83
2021/12/20 10:50:21;;;;;;;19.52;6.05;;;;;;;;;;4937181;28;20405;-83
2021/12/20 10:52:48;;;;;;;24.20;7.00;;;;;;;;;;4938103;28;20494;-81
2021/12/20 10:55:18;;;;;;;18.40;5.85;;;;;;;;;;4906248;28;20078;-82
2021/12/20 10:57:45;;;;;;;19.95;6.30;;;;;;;;;;4926812;28;20047;-83
2021/12/20 11:00:22;;;;;;;13.88;6.38;;;;;;;;;;4892322;28;20529;-82
2021/12/20 11:06:04;;;;;;;18.52;5.57;;;;;;;;;;4942096;28;20070;-82
2021/12/20 11:11:17;;;;;;;15.27;5.35;;;;;;;;;;4921225;28;20073;-83
2021/12/20 11:13:43;;;;;;;18.48;5.80;;;;;;;;;;4948461;28;20043;-82
2021/12/20 11:16:27;;;;;;;19.20;6.38;;;;;;;;;;4913180;28;20046;-82
2021/12/20 11:19:12;;;;;;;15.18;4.72;;;;;;;;;;4929831;28;20058;-82
2021/12/20 11:21:47;;;;;;;19.55;5.18;;;;;;;;;;4917735;28;20487;-83
2021/12/20 11:24:16;;;;;;;14.50;5.10;;;;;;;;;;4927405;28;20055;-82
2021/12/20 11:26:43;;;;;;;12.65;4.85;;;;;;;;;;4912874;28;20053;-82
2021/12/20 11:29:24;;;;;;;14.90;4.70;;;;;;;;;;4900748;29;20047;-82
2021/12/20 11:31:54;;;;;;;14.63;4.20;;;;;;;;;;4901583;29;23001;-82
2021/12/20 11:34:20;;;;;;;18.15;4.95;;;;;;;;;;4888019;29;20049;-83
2021/12/20 11:36:47;;;;;;;13.88;4.28;;;;;;;;;;4867355;29;20126;-83
2021/12/20 11:39:14;;;;;;;10.55;4.65;;;;;;;;;;4857670;29;20060;-84
2021/12/20 11:41:42;;;;;;;9.57;4.40;;;;;;;;;;4887945;29;20140;-84
2021/12/20 11:44:10;;;;;;;9.15;3.50;;;;;;;;;;4872340;29;20111;-83
2021/12/20 11:46:39;;;;;;;9.73;3.95;;;;;;;;;;4878941;29;20577;-83
2021/12/20 11:49:08;;;;;;;8.10;3.72;;;;;;;;;;4864540;29;20778;-83
2021/12/20 11:51:54;;;;;;;10.52;3.63;;;;;;;;;;4878261;29;20114;-83
2021/12/20 11:54:33;;;;;;;9.75;3.92;;;;;;;;;;4885495;29;20616;-83
2021/12/20 11:57:00;;;;;;;8.48;3.72;;;;;;;;;;4878189;29;20405;-83
2021/12/20 11:59:49;;;;;;;13.30;4.10;;;;;;;;;;4877390;29;20115;-81
2021/12/20 12:02:20;;;;;;;8.60;3.20;;;;;;;;;;4876407;29;20055;-81
2021/12/20 12:05:00;;;;;;;8.25;3.15;;;;;;;;;;4906345;29;20064;-80
2021/12/20 12:07:29;;;;;;;9.63;3.67;;;;;;;;;;4880271;28;22928;-80
2021/12/20 12:10:16;;;;;;;7.65;3.00;;;;;;;;;;4889804;29;20111;-80
2021/12/20 12:12:45;;;;;;;10.35;3.38;;;;;;;;;;4886669;29;20102;-81
2021/12/20 12:15:14;;;;;;;5.70;2.95;;;;;;;;;;4895748;29;20115;-81
2021/12/20 12:17:59;;;;;;;11.00;3.45;;;;;;;;;;4895306;29;20052;-81
2021/12/20 12:20:42;;;;;;;8.35;3.33;;;;;;;;;;4878839;29;20712;-81
2021/12/20 12:23:29;;;;;;;7.70;3.10;;;;;;;;;;4891749;29;20044;-80
2021/12/20 12:25:57;;;;;;;7.15;3.15;;;;;;;;;;4907495;29;20108;-80
2021/12/20 12:28:25;;;;;;;8.27;3.10;;;;;;;;;;4879615;29;20098;-80
2021/12/20 12:30:57;;;;;;;8.38;3.30;;;;;;;;;;4891762;29;20170;-80
2021/12/20 12:33:28;;;;;;;12.30;3.40;;;;;;;;;;4905859;29;20047;-82
2021/12/20 12:35:56;;;;;;;9.70;3.42;;;;;;;;;;4904882;29;20047;-81
2021/12/20 12:38:41;;;;;;;9.80;3.83;;;;;;;;;;4908978;28;20079;-83
2021/12/20 12:41:21;;;;;;;8.32;3.40;;;;;;;;;;4922372;28;20058;-82
2021/12/20 12:44:24;;;;;;;7.80;3.80;;;;;;;;;;4936252;28;20070;-82
2021/12/20 12:46:55;;;;;;;11.65;4.38;;;;;;;;;;4917378;28;20054;-83
2021/12/20 12:49:22;;;;;;;9.30;4.13;;;;;;;;;;4916643;28;20060;-81
2021/12/20 12:51:48;;;;;;;8.65;4.03;;;;;;;;;;4929272;28;20823;-81
2021/12/20 12:54:40;;;;;;;8.60;4.10;;;;;;;;;;4917165;28;20914;-81
2021/12/20 12:57:27;;;;;;;8.90;4.07;;;;;;;;;;4933062;28;20043;-81
2021/12/20 13:00:12;;;;;;;9.15;3.13;;;;;;;;;;4923272;28;20047;-81
2021/12/20 13:02:40;;;;;;;5.70;3.38;;;;;;;;;;4923260;28;20063;-81
2021/12/20 13:05:13;;;;;;;8.10;3.28;;;;;;;;;;4908809;28;20046;-81
2021/12/20 13:07:44;;;;;;;7.65;3.25;;;;;;;;;;4924249;28;20074;-81
2021/12/20 13:10:16;;;;;;;8.25;3.22;;;;;;;;;;4936362;28;20094;-81
2021/12/20 13:12:55;;;;;;;8.30;3.30;;;;;;;;;;4925577;28;20044;-81
2021/12/20 13:15:32;;;;;;;6.47;3.03;;;;;;;;;;4924718;28;20107;-81
2021/12/20 13:18:28;;;;;;;6.20;2.90;;;;;;;;;;4924449;28;20062;-81
2021/12/20 13:21:01;;;;;;;9.45;2.85;;;;;;;;;;4929153;28;20059;-82
2021/12/20 13:23:33;;;;;;;8.20;2.47;;;;;;;;;;4918690;28;20043;-82
2021/12/20 13:26:13;;;;;;;8.10;3.13;;;;;;;;;;4932115;28;20051;-82
2021/12/20 13:28:44;;;;;;;7.68;2.80;;;;;;;;;;4921770;28;20130;-81
2021/12/20 13:31:16;;;;;;;4.90;2.65;;;;;;;;;;4920119;28;20056;-81
2021/12/20 13:33:51;;;;;;;5.97;2.83;;;;;;;;;;4929433;28;20078;-81
2021/12/20 13:36:31;;;;;;;11.25;3.70;;;;;;;;;;4920616;28;20036;-82
2021/12/20 13:39:00;;;;;;;6.70;3.00;;;;;;;;;;4913596;28;20055;-82
2021/12/20 13:41:26;;;;;;;9.02;3.20;;;;;;;;;;4895446;28;20058;-82
2021/12/20 13:43:57;;;;;;;9.85;3.17;;;;;;;;;;4927322;28;20043;-82
2021/12/20 13:46:29;;;;;;;12.68;3.40;;;;;;;;;;4908943;28;20171;-82
2021/12/20 13:49:31;;;;;;;9.45;4.13;;;;;;;;;;4945568;28;20158;-82
2021/12/20 13:51:57;;;;;;;4.70;3.28;;;;;;;;;;4924276;28;20040;-82
2021/12/20 13:54:41;;;;;;;9.52;3.20;;;;;;;;;;4941337;28;20054;-82
2021/12/20 13:57:23;;;;;;;10.25;3.30;;;;;;;;;;4944077;28;20043;-82
2021/12/20 13:59:50;;;;;;;9.32;3.50;;;;;;;;;;4915499;28;20075;-82
2021/12/20 14:02:17;;;;;;;7.30;3.03;;;;;;;;;;4910195;28;20051;-82
2021/12/20 14:04:46;;;;;;;9.65;3.50;;;;;;;;;;4946324;28;20379;-82
2021/12/20 14:07:31;;;;;;;7.07;3.10;;;;;;;;;;4933682;28;20110;-82
2021/12/20 14:10:16;;;;;;;7.03;3.55;;;;;;;;;;4933745;28;20047;-82
2021/12/20 14:12:43;;;;;;;9.00;3.88;;;;;;;;;;4920622;28;20047;-83
2021/12/20 14:15:17;;;;;;;8.30;3.88;;;;;;;;;;4897294;28;20062;-82
2021/12/20 14:18:17;;;;;;;9.32;3.60;;;;;;;;;;4923754;28;20044;-82
2021/12/20 14:20:45;;;;;;;10.57;3.45;;;;;;;;;;4895119;28;20681;-82
2021/12/20 14:23:30;;;;;;;8.55;3.83;;;;;;;;;;4912533;28;20043;-82
2021/12/20 14:26:16;;;;;;;6.30;3.13;;;;;;;;;;4934331;28;20179;-82
2021/12/20 14:28:45;;;;;;;11.93;3.65;;;;;;;;;;4957844;28;20083;-82
2021/12/20 14:31:35;;;;;;;6.00;3.30;;;;;;;;;;4923453;28;20062;-82
2021/12/20 14:34:04;;;;;;;5.18;2.95;;;;;;;;;;4935394;29;20054;-82
2021/12/20 14:36:37;;;;;;;7.82;3.25;;;;;;;;;;4912074;28;20043;-82
2021/12/20 14:39:22;;;;;;;6.00;3.08;;;;;;;;;;4929141;28;20047;-82
2021/12/20 14:41:50;;;;;;;8.07;3.60;;;;;;;;;;4937868;28;20055;-82
2021/12/20 14:44:42;;;;;;;7.30;3.20;;;;;;;;;;4925807;28;20055;-82
2021/12/20 14:47:24;;;;;;;5.90;3.25;;;;;;;;;;4943548;28;20046;-82
2021/12/20 14:49:57;;;;;;;9.77;3.40;;;;;;;;;;4918124;28;20043;-82
2021/12/20 14:52:28;;;;;;;10.00;3.40;;;;;;;;;;4953868;28;20122;-82
2021/12/20 14:54:55;;;;;;;8.18;3.17;;;;;;;;;;4936580;28;20043;-82
2021/12/20 14:57:24;;;;;;;9.32;3.45;;;;;;;;;;4919919;28;20063;-82
2021/12/20 14:59:52;;;;;;;8.20;3.40;;;;;;;;;;4935872;28;20082;-82
2021/12/20 15:02:23;;;;;;;8.85;3.35;;;;;;;;;;4921007;28;20074;-82
2021/12/20 15:04:49;;;;;;;9.45;3.35;;;;;;;;;;4929472;29;20062;-82
2021/12/20 15:07:15;;;;;;;5.45;3.00;;;;;;;;;;4944080;28;20039;-83
2021/12/20 15:09:43;;;;;;;6.55;3.10;;;;;;;;;;4957433;28;20063;-82